Time;durP1;ratioP1;P1;durP2;ratioP2;P2;SDS_P1;SDS_P2;PMS_P1;PMS_P2;Temp;Humidity;BMP_temperature;BMP_pressure;BME280_temperature;BME280_humidity;BME280_pressure;Samples;Min_cycle;Max_cycle;Signal;HPM_P1;HPM_P2
2022/11/30 00:00:21;;;;;;;21.55;7.78;;;9.70;92.30;;;;;;5112468;28;20021;-74
2022/11/30 00:02:54;;;;;;;21.88;9.40;;;9.70;92.30;;;;;;5112631;28;20039;-74
2022/11/30 00:05:21;;;;;;;23.55;8.73;;;9.70;92.30;;;;;;5113502;28;20050;-74
2022/11/30 00:07:47;;;;;;;23.45;9.68;;;9.70;92.30;;;;;;5113514;28;20050;-74
2022/11/30 00:10:13;;;;;;;22.77;8.77;;;9.80;92.70;;;;;;5113432;28;20029;-74
2022/11/30 00:12:41;;;;;;;21.17;9.35;;;9.80;92.30;;;;;;5115408;28;20065;-74
2022/11/30 00:15:12;;;;;;;19.50;8.98;;;9.80;92.30;;;;;;5116620;28;20021;-74
2022/11/30 00:17:41;;;;;;;21.23;9.60;;;9.80;92.20;;;;;;5117546;28;20084;-74
2022/11/30 00:20:08;;;;;;;25.90;9.30;;;9.70;92.20;;;;;;5116587;28;20020;-74
2022/11/30 00:22:34;;;;;;;25.27;9.30;;;9.70;92.30;;;;;;5116477;28;20051;-74
2022/11/30 00:25:02;;;;;;;20.98;8.75;;;9.80;92.20;;;;;;5099061;28;20044;-74
2022/11/30 00:27:28;;;;;;;21.33;9.73;;;9.80;92.20;;;;;;5115107;28;20035;-74
2022/11/30 00:29:54;;;;;;;19.67;9.00;;;9.80;92.20;;;;;;5114877;28;20028;-74
2022/11/30 00:32:20;;;;;;;27.05;10.30;;;9.80;92.20;;;;;;5115811;28;20029;-74
2022/11/30 00:34:46;;;;;;;23.10;8.85;;;9.80;92.20;;;;;;5115852;28;20051;-74
2022/11/30 00:37:11;;;;;;;21.60;9.38;;;9.80;92.20;;;;;;5115968;28;20028;-74
2022/11/30 00:39:37;;;;;;;26.25;9.80;;;9.80;92.20;;;;;;5115769;28;20031;-74
2022/11/30 00:42:03;;;;;;;24.15;9.27;;;9.80;92.20;;;;;;5097888;28;20024;-74
2022/11/30 00:44:28;;;;;;;22.20;8.55;;;9.80;92.20;;;;;;5115712;28;20067;-74
2022/11/30 00:46:54;;;;;;;22.42;9.60;;;9.80;92.20;;;;;;5114869;28;20059;-74
2022/11/30 00:49:19;;;;;;;23.83;8.85;;;9.80;92.20;;;;;;5114582;28;20050;-74
2022/11/30 00:51:45;;;;;;;20.83;9.00;;;9.80;92.20;;;;;;5115511;28;20025;-74
2022/11/30 00:54:10;;;;;;;21.60;8.50;;;9.80;92.10;;;;;;5115692;28;20028;-74
2022/11/30 00:56:36;;;;;;;20.10;9.45;;;9.80;92.10;;;;;;5097625;28;20042;-74
2022/11/30 00:59:02;;;;;;;20.25;8.73;;;9.80;92.10;;;;;;5115468;28;20027;-74
2022/11/30 01:01:28;;;;;;;20.63;9.40;;;9.70;92.10;;;;;;5114406;28;20103;-74
2022/11/30 01:03:53;;;;;;;21.58;9.45;;;9.70;92.10;;;;;;5114458;28;20021;-74
2022/11/30 01:06:19;;;;;;;20.25;9.88;;;9.70;92.10;;;;;;5115367;28;20394;-74
2022/11/30 01:08:46;;;;;;;22.48;10.10;;;9.80;92.10;;;;;;5115262;28;20024;-73
2022/11/30 01:11:22;;;;;;;22.42;9.52;;;9.70;92.10;;;;;;5114206;28;20062;-74
2022/11/30 01:13:48;;;;;;;21.85;9.55;;;9.70;92.00;;;;;;5115269;28;20025;-74
2022/11/30 01:16:17;;;;;;;21.13;9.57;;;9.70;92.00;;;;;;5115162;28;20032;-74
2022/11/30 01:18:43;;;;;;;21.42;9.93;;;9.70;92.30;;;;;;5115170;28;20026;-74
2022/11/30 01:21:15;;;;;;;20.58;8.85;;;9.70;91.90;;;;;;5115116;28;20028;-74
2022/11/30 01:23:41;;;;;;;23.27;9.68;;;9.70;91.90;;;;;;5114747;28;20025;-74
2022/11/30 01:26:07;;;;;;;19.80;8.97;;;9.70;91.90;;;;;;5076802;28;1099325;-74
2022/11/30 01:28:33;;;;;;;21.63;9.30;;;9.70;91.80;;;;;;5116163;28;20270;-74
2022/11/30 01:31:04;;;;;;;22.48;8.93;;;9.70;91.80;;;;;;5115011;28;20559;-74
2022/11/30 01:33:30;;;;;;;23.85;9.35;;;9.70;91.80;;;;;;5116092;28;20020;-74
2022/11/30 01:36:06;;;;;;;21.02;9.80;;;9.70;91.70;;;;;;5116026;28;20023;-74
2022/11/30 01:38:37;;;;;;;22.95;9.73;;;9.60;91.60;;;;;;5114985;28;20499;-74
2022/11/30 01:41:04;;;;;;;23.60;10.40;;;9.60;92.00;;;;;;5115965;28;20024;-74
2022/11/30 01:44:16;;;;;;;26.67;10.55;;;9.60;91.60;;;;;;5115860;28;20025;-74
2022/11/30 01:46:58;;;;;;;22.67;10.23;;;9.60;91.60;;;;;;5115593;28;20032;-74
2022/11/30 01:49:38;;;;;;;23.88;10.07;;;9.60;91.60;;;;;;5115994;28;20028;-74
2022/11/30 01:52:10;;;;;;;23.48;10.15;;;9.50;91.50;;;;;;5115692;28;20080;-74
2022/11/30 01:55:00;;;;;;;24.50;10.52;;;9.50;91.50;;;;;;5115697;28;20028;-74
2022/11/30 01:57:34;;;;;;;22.67;10.23;;;9.40;91.50;;;;;;5115688;28;20032;-74
2022/11/30 02:00:02;;;;;;;22.65;10.30;;;9.40;91.60;;;;;;5114650;28;20088;-74
2022/11/30 02:03:01;;;;;;;24.48;10.70;;;9.40;91.60;;;;;;5114487;28;20020;-74
2022/11/30 02:05:27;;;;;;;23.48;10.25;;;9.50;91.60;;;;;;5115519;28;20031;-74
2022/11/30 02:07:54;;;;;;;24.08;10.57;;;9.50;91.50;;;;;;5115343;28;20031;-74
2022/11/30 02:10:27;;;;;;;22.38;10.13;;;9.50;91.50;;;;;;5115388;28;20024;-74
2022/11/30 02:13:17;;;;;;;24.95;10.52;;;9.50;91.40;;;;;;5115418;28;20024;-74
2022/11/30 02:15:58;;;;;;;24.70;10.23;;;9.50;91.40;;;;;;5115405;28;20024;-74
2022/11/30 02:18:36;;;;;;;25.13;10.55;;;9.50;91.40;;;;;;5115254;28;20045;-74
2022/11/30 02:21:33;;;;;;;21.20;10.48;;;9.50;91.40;;;;;;5114204;28;20095;-74
2022/11/30 02:24:20;;;;;;;21.85;10.73;;;9.50;91.40;;;;;;5115148;28;20027;-74
2022/11/30 02:26:49;;;;;;;23.75;10.38;;;9.50;91.40;;;;;;5113873;28;20474;-74
2022/11/30 02:29:27;;;;;;;24.65;10.60;;;9.50;91.40;;;;;;5114946;28;20024;-74
2022/11/30 02:32:13;;;;;;;25.42;10.98;;;9.50;91.30;;;;;;5114930;28;20028;-74
2022/11/30 02:34:42;;;;;;;25.85;9.85;;;9.40;91.20;;;;;;5114124;28;20097;-74
2022/11/30 02:37:11;;;;;;;22.50;10.13;;;9.40;91.30;;;;;;5114827;28;20027;-74
2022/11/30 02:39:36;;;;;;;21.98;9.45;;;9.40;91.30;;;;;;5114767;28;20016;-74
2022/11/30 02:42:02;;;;;;;24.00;9.55;;;9.40;91.30;;;;;;5114848;28;20430;-74
2022/11/30 02:44:28;;;;;;;21.20;9.45;;;9.40;91.20;;;;;;5114680;28;20031;-74
2022/11/30 02:47:18;;;;;;;23.27;10.13;;;9.40;91.20;;;;;;5114651;28;20106;-74
2022/11/30 02:49:46;;;;;;;21.33;9.85;;;9.40;91.20;;;;;;5114805;28;20057;-74
2022/11/30 02:52:14;;;;;;;23.90;10.65;;;9.40;91.10;;;;;;5114485;28;20032;-74
2022/11/30 02:54:40;;;;;;;20.88;9.85;;;9.40;91.10;;;;;;5114546;28;20016;-74
2022/11/30 02:57:06;;;;;;;20.98;9.63;;;9.30;91.10;;;;;;5114432;28;20020;-74
2022/11/30 02:59:32;;;;;;;19.60;9.07;;;9.30;91.60;;;;;;5114394;28;20028;-74
2022/11/30 03:01:57;;;;;;;20.35;9.57;;;9.30;91.20;;;;;;5113466;28;20039;-74
2022/11/30 03:04:23;;;;;;;21.88;9.63;;;9.20;91.20;;;;;;5096372;28;20097;-74
2022/11/30 03:06:49;;;;;;;19.10;8.73;;;9.20;91.30;;;;;;5113419;28;20039;-74
2022/11/30 03:09:14;;;;;;;18.75;8.48;;;9.20;91.20;;;;;;5114151;28;20039;-74
2022/11/30 03:11:40;;;;;;;24.70;10.27;;;9.20;91.30;;;;;;5113157;28;20032;-74
2022/11/30 03:14:05;;;;;;;22.15;9.63;;;9.20;91.30;;;;;;5113259;28;20049;-74
2022/11/30 03:16:32;;;;;;;16.73;8.48;;;9.20;91.20;;;;;;5114096;28;20024;-74
2022/11/30 03:18:58;;;;;;;19.83;8.80;;;9.20;91.30;;;;;;5114060;28;20016;-73
2022/11/30 03:21:24;;;;;;;20.80;9.30;;;9.30;91.20;;;;;;5114039;28;20028;-74
2022/11/30 03:23:49;;;;;;;20.38;9.52;;;9.20;91.20;;;;;;5113961;28;20043;-74
2022/11/30 03:26:15;;;;;;;19.42;9.32;;;9.20;91.30;;;;;;5112826;28;20067;-74
2022/11/30 03:28:40;;;;;;;23.50;9.52;;;9.20;91.30;;;;;;5113930;28;20028;-74
2022/11/30 03:31:10;;;;;;;19.17;9.23;;;9.20;91.30;;;;;;5113784;28;20028;-74
2022/11/30 03:33:36;;;;;;;21.25;9.32;;;9.20;91.20;;;;;;5112955;28;20020;-74
2022/11/30 03:36:07;;;;;;;21.08;9.23;;;9.20;91.20;;;;;;5112861;28;20024;-74
2022/11/30 03:38:33;;;;;;;18.38;8.45;;;9.20;91.20;;;;;;5113772;28;20521;-74
2022/11/30 03:41:00;;;;;;;17.23;8.50;;;9.20;91.30;;;;;;5113761;28;20042;-74
2022/11/30 03:43:26;;;;;;;19.52;9.30;;;9.20;91.20;;;;;;5112826;28;20020;-74
2022/11/30 03:45:52;;;;;;;16.65;8.60;;;9.20;91.00;;;;;;5112706;28;20027;-74
2022/11/30 03:48:17;;;;;;;18.45;8.63;;;9.20;91.00;;;;;;5095778;28;20020;-74
2022/11/30 03:50:48;;;;;;;20.88;9.55;;;9.10;91.10;;;;;;5113617;28;20032;-74
2022/11/30 03:53:14;;;;;;;19.45;8.93;;;9.10;91.20;;;;;;5112896;28;20604;-74
2022/11/30 03:55:40;;;;;;;21.88;8.68;;;9.10;91.20;;;;;;5113562;28;20016;-74
2022/11/30 03:58:05;;;;;;;19.50;8.43;;;9.10;91.20;;;;;;5113529;28;20028;-74
2022/11/30 04:00:31;;;;;;;21.48;8.95;;;9.10;91.20;;;;;;5113547;28;20020;-74
2022/11/30 04:02:56;;;;;;;20.77;9.15;;;9.00;91.20;;;;;;5112554;28;20040;-74
2022/11/30 04:05:22;;;;;;;21.05;9.32;;;9.00;91.20;;;;;;5113460;28;20058;-74
2022/11/30 04:07:48;;;;;;;21.08;8.85;;;9.00;91.20;;;;;;5112558;28;20055;-74
2022/11/30 04:10:13;;;;;;;19.98;8.93;;;9.10;91.20;;;;;;5095555;28;20043;-74
2022/11/30 04:12:39;;;;;;;19.23;8.77;;;9.10;91.20;;;;;;5113455;28;20024;-74
2022/11/30 04:15:05;;;;;;;20.35;8.82;;;9.10;91.10;;;;;;5113354;28;20044;-74
2022/11/30 04:17:30;;;;;;;20.05;8.65;;;9.00;91.10;;;;;;5112621;28;20024;-74
2022/11/30 04:19:56;;;;;;;18.45;9.02;;;9.00;91.20;;;;;;5113327;28;20584;-74
2022/11/30 04:22:21;;;;;;;21.05;9.98;;;9.00;91.20;;;;;;5112339;28;20040;-74
2022/11/30 04:24:47;;;;;;;22.80;9.77;;;9.00;91.20;;;;;;5112033;28;20028;-75
2022/11/30 04:27:13;;;;;;;23.92;9.95;;;9.00;91.20;;;;;;5095471;28;20455;-74
2022/11/30 04:29:38;;;;;;;23.45;10.02;;;9.00;91.20;;;;;;5113242;28;20077;-74
2022/11/30 04:32:04;;;;;;;23.15;10.65;;;9.10;91.20;;;;;;5112183;28;20032;-74
2022/11/30 04:34:30;;;;;;;21.77;8.88;;;9.10;91.20;;;;;;5095423;28;20034;-74
2022/11/30 04:36:56;;;;;;;21.65;9.68;;;9.10;91.20;;;;;;5113162;28;20049;-74
2022/11/30 04:39:21;;;;;;;21.38;9.82;;;9.10;91.10;;;;;;5113159;28;20514;-74
2022/11/30 04:41:47;;;;;;;19.45;8.77;;;9.10;91.10;;;;;;5112105;28;20050;-74
2022/11/30 04:44:13;;;;;;;26.42;10.60;;;9.10;91.00;;;;;;5112194;28;20050;-74
2022/11/30 04:46:38;;;;;;;24.77;10.30;;;9.10;91.10;;;;;;5113078;28;20032;-74
2022/11/30 04:49:04;;;;;;;23.17;10.50;;;9.10;91.10;;;;;;5113043;28;20036;-74
2022/11/30 04:51:29;;;;;;;23.58;10.32;;;9.10;91.10;;;;;;5112970;28;20028;-74
2022/11/30 04:53:55;;;;;;;22.25;9.32;;;9.10;91.00;;;;;;5113015;28;20028;-74
2022/11/30 04:56:20;;;;;;;24.88;10.27;;;9.10;91.00;;;;;;5113005;28;20035;-74
2022/11/30 04:58:46;;;;;;;23.38;9.57;;;9.10;90.90;;;;;;5115948;28;20028;-74
2022/11/30 05:01:12;;;;;;;22.80;10.07;;;9.00;90.90;;;;;;5116724;28;20032;-74
2022/11/30 05:03:37;;;;;;;20.55;9.32;;;9.00;90.90;;;;;;5115682;28;20062;-74
2022/11/30 05:06:03;;;;;;;23.13;9.48;;;9.00;90.90;;;;;;5115789;28;20047;-74
2022/11/30 05:08:29;;;;;;;23.17;9.55;;;8.90;90.90;;;;;;5116505;28;20028;-73
2022/11/30 05:10:55;;;;;;;21.80;9.75;;;8.90;90.90;;;;;;5115457;28;20064;-74
2022/11/30 05:13:22;;;;;;;20.90;9.32;;;8.90;90.90;;;;;;5116518;28;20061;-74
2022/11/30 05:15:48;;;;;;;25.15;10.18;;;8.80;90.80;;;;;;5116473;28;20094;-74
2022/11/30 05:18:14;;;;;;;20.95;9.70;;;8.80;90.80;;;;;;5116375;28;20036;-74
2022/11/30 05:20:40;;;;;;;18.98;8.85;;;8.70;90.80;;;;;;5116450;28;20020;-74
2022/11/30 05:23:06;;;;;;;19.58;8.63;;;8.60;90.80;;;;;;5115328;28;20043;-74
2022/11/30 05:25:31;;;;;;;17.85;8.00;;;8.60;90.80;;;;;;5114953;28;20093;-74
2022/11/30 05:27:57;;;;;;;19.40;7.72;;;8.60;90.70;;;;;;5116178;28;20032;-74
2022/11/30 05:30:23;;;;;;;16.60;7.88;;;8.60;90.60;;;;;;5115206;28;20512;-74
2022/11/30 05:32:48;;;;;;;20.52;7.60;;;8.60;90.60;;;;;;5114988;28;20036;-74
2022/11/30 05:35:14;;;;;;;13.88;6.38;;;8.50;90.30;;;;;;5115099;28;20051;-74
2022/11/30 05:37:39;;;;;;;16.65;7.13;;;8.40;90.40;;;;;;5115976;28;20034;-74
2022/11/30 05:40:06;;;;;;;19.90;7.38;;;8.40;90.40;;;;;;5098105;28;20024;-74
2022/11/30 05:42:31;;;;;;;13.15;6.38;;;8.40;90.30;;;;;;5114974;28;20028;-74
2022/11/30 05:44:57;;;;;;;18.42;7.85;;;8.30;90.10;;;;;;5114974;28;20032;-74
2022/11/30 05:47:22;;;;;;;21.20;7.75;;;8.20;90.30;;;;;;5115781;28;20035;-74
2022/11/30 05:49:49;;;;;;;20.75;6.07;;;8.20;90.40;;;;;;5115792;28;20028;-74
2022/11/30 05:52:15;;;;;;;8.68;4.88;;;8.20;90.40;;;;;;5115790;28;20036;-74
2022/11/30 05:54:40;;;;;;;25.98;5.68;;;8.20;90.30;;;;;;5115654;28;20025;-74
2022/11/30 05:57:06;;;;;;;23.17;6.07;;;8.10;90.00;;;;;;5114710;28;20020;-74
2022/11/30 05:59:31;;;;;;;13.55;6.32;;;7.90;89.70;;;;;;5115565;28;20052;-74
2022/11/30 06:01:57;;;;;;;14.63;6.63;;;7.90;90.10;;;;;;5114733;28;20079;-73
2022/11/30 06:04:23;;;;;;;13.77;6.47;;;7.80;90.10;;;;;;5115427;28;20120;-74
2022/11/30 06:06:51;;;;;;;16.02;7.47;;;7.80;90.10;;;;;;5115443;28;20024;-74
2022/11/30 06:09:16;;;;;;;13.88;6.47;;;7.80;90.10;;;;;;5114119;28;20020;-74
2022/11/30 06:11:42;;;;;;;14.32;7.32;;;7.80;90.00;;;;;;5114281;28;20058;-73
2022/11/30 06:14:07;;;;;;;16.77;7.75;;;7.70;89.80;;;;;;5115304;28;20032;-74
2022/11/30 06:16:33;;;;;;;20.98;8.40;;;7.70;90.00;;;;;;5115268;28;20023;-74
2022/11/30 06:18:59;;;;;;;20.83;8.02;;;7.80;90.10;;;;;;5115170;28;20487;-74
2022/11/30 06:21:24;;;;;;;16.35;7.22;;;7.80;90.00;;;;;;5115093;28;20036;-74
2022/11/30 06:23:50;;;;;;;14.45;7.72;;;7.80;89.70;;;;;;5115101;28;20032;-74
2022/11/30 06:26:16;;;;;;;16.42;7.25;;;7.70;89.80;;;;;;5114886;28;20063;-74
2022/11/30 06:28:41;;;;;;;13.70;6.78;;;7.70;89.50;;;;;;5114980;28;20024;-74
2022/11/30 06:31:07;;;;;;;13.77;6.82;;;7.60;89.50;;;;;;5113991;28;20032;-73
2022/11/30 06:33:33;;;;;;;14.35;6.78;;;7.50;89.30;;;;;;5113982;28;20036;-74
2022/11/30 06:35:59;;;;;;;15.60;6.95;;;7.50;89.40;;;;;;5113805;28;20122;-74
2022/11/30 06:38:25;;;;;;;17.00;6.78;;;7.50;89.70;;;;;;5114811;28;20035;-74
2022/11/30 06:40:51;;;;;;;13.95;6.50;;;7.50;89.90;;;;;;5114798;28;20016;-74
2022/11/30 06:43:17;;;;;;;16.20;6.93;;;7.50;89.40;;;;;;5114711;28;20031;-74
2022/11/30 06:45:44;;;;;;;15.95;7.05;;;7.40;89.60;;;;;;5114783;28;20087;-74
2022/11/30 06:48:11;;;;;;;17.33;6.80;;;7.50;89.60;;;;;;5114662;28;20028;-74
2022/11/30 06:50:37;;;;;;;14.57;6.70;;;7.50;89.50;;;;;;5113524;28;20026;-74
2022/11/30 06:53:03;;;;;;;12.15;6.13;;;7.50;89.10;;;;;;5114430;28;20111;-74
2022/11/30 06:55:31;;;;;;;14.73;6.72;;;7.50;89.40;;;;;;5114488;28;20050;-74
2022/11/30 06:58:04;;;;;;;18.45;7.05;;;7.40;88.70;;;;;;5114428;28;20024;-74
2022/11/30 07:00:30;;;;;;;14.43;7.00;;;7.30;89.30;;;;;;5114457;28;20027;-74
2022/11/30 07:02:56;;;;;;;18.02;6.95;;;7.30;89.40;;;;;;5113560;28;20032;-74
2022/11/30 07:05:21;;;;;;;15.07;6.88;;;7.30;89.60;;;;;;5113427;28;20036;-74
2022/11/30 07:07:47;;;;;;;12.48;6.43;;;7.30;89.50;;;;;;5114185;28;20036;-74
2022/11/30 07:10:12;;;;;;;13.82;6.05;;;7.20;89.40;;;;;;5114225;28;20058;-74
2022/11/30 07:12:38;;;;;;;12.73;6.15;;;7.30;89.40;;;;;;5113195;28;20040;-74
2022/11/30 07:15:04;;;;;;;14.10;6.90;;;7.30;89.30;;;;;;5114165;28;20024;-73
2022/11/30 07:17:29;;;;;;;12.35;6.05;;;7.30;89.10;;;;;;5114111;28;20032;-74
2022/11/30 07:19:55;;;;;;;12.85;6.03;;;7.30;88.50;;;;;;5112766;28;20036;-74
2022/11/30 07:22:20;;;;;;;12.80;5.60;;;7.30;88.80;;;;;;5114164;28;20031;-74
2022/11/30 07:27:30;;;;;;;12.07;5.57;;;7.30;89.00;;;;;;5114057;28;20059;-74
2022/11/30 07:29:56;;;;;;;12.90;5.63;;;7.20;89.10;;;;;;5113864;28;20032;-74
2022/11/30 07:32:21;;;;;;;9.95;5.10;;;7.20;89.00;;;;;;5113770;28;20032;-74
2022/11/30 07:34:47;;;;;;;16.52;6.60;;;7.30;88.80;;;;;;5112767;28;20467;-74
2022/11/30 07:37:12;;;;;;;13.90;6.15;;;7.30;88.40;;;;;;5095912;28;20028;-74
2022/11/30 07:39:41;;;;;;;11.52;5.85;;;7.20;88.60;;;;;;5113570;28;20028;-73
2022/11/30 07:45:21;;;;;;;12.32;5.45;;;7.30;88.70;;;;;;5092776;28;20043;-73
2022/11/30 07:47:57;;;;;;;12.90;5.90;;;7.20;88.60;;;;;;5113579;28;20028;-73
2022/11/30 07:50:22;;;;;;;10.13;4.75;;;7.20;88.70;;;;;;5096638;28;20035;-73
2022/11/30 07:52:48;;;;;;;11.20;4.75;;;7.10;88.30;;;;;;5095665;28;20059;-73
2022/11/30 07:55:14;;;;;;;9.52;5.28;;;7.10;88.10;;;;;;5113707;28;20024;-73
2022/11/30 07:57:39;;;;;;;7.47;4.28;;;7.10;88.60;;;;;;5112562;28;20028;-73
2022/11/30 08:00:05;;;;;;;11.90;5.30;;;7.20;88.30;;;;;;5113502;28;20025;-73
2022/11/30 08:02:31;;;;;;;10.25;5.28;;;7.20;88.20;;;;;;5112517;28;20032;-73
2022/11/30 08:04:57;;;;;;;11.07;5.35;;;7.10;88.00;;;;;;5113456;28;20043;-74
2022/11/30 08:07:23;;;;;;;13.38;5.70;;;7.10;88.40;;;;;;5112554;28;20024;-74
2022/11/30 08:09:51;;;;;;;11.98;5.88;;;7.10;88.90;;;;;;5112295;28;20035;-74
2022/11/30 08:12:16;;;;;;;11.35;4.95;;;7.10;88.80;;;;;;5112454;28;20036;-73
2022/11/30 08:14:42;;;;;;;12.25;5.80;;;7.20;88.70;;;;;;5113291;28;20052;-73
2022/11/30 08:17:08;;;;;;;10.68;5.50;;;7.10;88.30;;;;;;5112522;28;20087;-73
2022/11/30 08:19:34;;;;;;;8.85;4.70;;;7.20;88.60;;;;;;5112510;28;20020;-73
2022/11/30 08:21:59;;;;;;;9.93;5.15;;;7.20;88.90;;;;;;5112365;28;20093;-73
2022/11/30 08:24:25;;;;;;;9.80;4.75;;;7.10;88.90;;;;;;5112287;28;20028;-73
2022/11/30 08:26:58;;;;;;;12.75;6.13;;;7.20;89.20;;;;;;5112982;28;20060;-73
2022/11/30 08:29:35;;;;;;;;;;;7.20;89.30;;;;;;5112718;28;20029;-73
2022/11/30 08:32:00;;;;;;;12.20;5.55;;;7.30;89.50;;;;;;5113476;28;19919;-73
2022/11/30 08:34:26;;;;;;;13.23;5.70;;;7.30;89.40;;;;;;5117219;28;20025;-74
2022/11/30 08:36:53;;;;;;;10.20;5.32;;;7.30;89.60;;;;;;5116249;28;20024;-73
2022/11/30 08:39:22;;;;;;;12.20;5.97;;;7.30;89.80;;;;;;5117173;28;20047;-74
2022/11/30 08:41:47;;;;;;;11.82;5.93;;;7.30;90.00;;;;;;5117056;28;20028;-73
2022/11/30 08:44:13;;;;;;;15.27;6.70;;;7.30;90.00;;;;;;5117218;28;20084;-74
2022/11/30 08:46:38;;;;;;;18.92;7.63;;;7.40;90.10;;;;;;5117020;28;20032;-74
2022/11/30 08:49:04;;;;;;;24.58;8.88;;;7.50;90.20;;;;;;5116234;28;20025;-74
2022/11/30 08:51:30;;;;;;;20.90;8.57;;;7.50;90.20;;;;;;5116810;28;20028;-74
2022/11/30 08:53:57;;;;;;;20.65;8.30;;;7.60;90.30;;;;;;5116817;28;20096;-74
2022/11/30 08:56:22;;;;;;;20.35;7.78;;;7.50;90.60;;;;;;5116794;28;20032;-74
2022/11/30 08:58:48;;;;;;;19.42;8.60;;;7.50;90.90;;;;;;5116748;28;20054;-74
2022/11/30 09:01:24;;;;;;;42.20;9.85;;;7.70;90.90;;;;;;5116720;28;20088;-74
2022/11/30 09:03:54;;;;;;;18.27;7.78;;;7.80;91.10;;;;;;5115668;28;20016;-74
2022/11/30 09:06:24;;;;;;;16.20;7.93;;;7.80;91.10;;;;;;5116639;28;20398;-74
2022/11/30 09:08:52;;;;;;;19.58;9.00;;;7.90;91.00;;;;;;5115584;28;20044;-74
2022/11/30 09:11:21;;;;;;;14.63;7.65;;;8.00;91.00;;;;;;5116421;28;21935;-74
2022/11/30 09:13:47;;;;;;;12.73;7.05;;;8.10;91.00;;;;;;5116461;28;20040;-73
2022/11/30 09:16:18;;;;;;;15.38;7.32;;;8.20;90.90;;;;;;5115527;28;20024;-73
2022/11/30 09:18:56;;;;;;;14.93;7.20;;;8.20;90.80;;;;;;5112754;28;20024;-72
2022/11/30 09:21:23;;;;;;;18.35;8.07;;;8.20;90.80;;;;;;5115567;28;20051;-75
2022/11/30 09:23:50;;;;;;;16.60;7.40;;;8.30;90.80;;;;;;5115231;28;20050;-75
2022/11/30 09:26:18;;;;;;;16.98;8.13;;;8.30;90.80;;;;;;5116071;28;20048;-75
2022/11/30 09:28:45;;;;;;;16.58;7.68;;;8.30;90.80;;;;;;5116177;28;20024;-75
2022/11/30 09:31:16;;;;;;;18.83;8.13;;;8.30;90.80;;;;;;5116082;28;20028;-75
2022/11/30 09:33:43;;;;;;;17.35;7.93;;;8.30;90.80;;;;;;5116067;28;20020;-75
2022/11/30 09:36:11;;;;;;;13.60;7.32;;;8.40;90.90;;;;;;5116059;28;20036;-75
2022/11/30 09:38:38;;;;;;;17.58;8.20;;;8.40;90.80;;;;;;5116038;28;20072;-75
2022/11/30 09:41:13;;;;;;;15.75;8.02;;;8.40;90.80;;;;;;5115953;28;20093;-73
2022/11/30 09:43:50;;;;;;;17.23;8.93;;;8.40;90.90;;;;;;5115746;28;20017;-75
2022/11/30 09:46:19;;;;;;;18.85;9.05;;;8.50;90.90;;;;;;5115859;28;20028;-75
2022/11/30 09:49:00;;;;;;;16.98;8.43;;;8.50;90.90;;;;;;5115806;28;20048;-75
2022/11/30 09:51:34;;;;;;;17.67;8.88;;;8.50;90.90;;;;;;5115855;28;20190;-75
2022/11/30 09:54:07;;;;;;;18.60;9.52;;;8.50;90.90;;;;;;5115763;28;20056;-75
2022/11/30 09:56:37;;;;;;;19.23;8.85;;;8.50;90.90;;;;;;5115832;28;20103;-75
2022/11/30 09:59:13;;;;;;;19.00;8.55;;;8.50;90.90;;;;;;5115655;28;20509;-73
2022/11/30 10:01:39;;;;;;;16.92;8.77;;;8.50;90.90;;;;;;5115524;28;20040;-73
2022/11/30 10:04:11;;;;;;;18.08;9.88;;;8.50;90.90;;;;;;5115501;28;20028;-72
2022/11/30 10:06:57;;;;;;;22.85;9.63;;;8.50;90.90;;;;;;5115565;28;20035;-73
2022/11/30 10:09:40;;;;;;;20.40;9.25;;;8.50;90.90;;;;;;5115374;28;20024;-74
2022/11/30 10:12:16;;;;;;;;;;;8.50;90.90;;;;;;5115922;28;20028;-74
2022/11/30 10:15:28;;;;;;;34.15;12.38;;;8.50;90.90;;;;;;5113307;28;19908;-75
2022/11/30 10:17:57;;;;;;;28.92;11.30;;;8.50;90.90;;;;;;5058504;28;20035;-74
2022/11/30 10:20:41;;;;;;;34.15;12.60;;;8.50;91.00;;;;;;5113412;28;20020;-74
2022/11/30 10:23:31;;;;;;;31.30;11.50;;;8.50;91.10;;;;;;5113485;28;20036;-74
2022/11/30 10:26:05;;;;;;;27.98;11.95;;;8.60;91.10;;;;;;5113150;28;20100;-75
2022/11/30 10:28:52;;;;;;;28.98;11.27;;;8.60;91.10;;;;;;5113333;28;20044;-75
2022/11/30 10:31:26;;;;;;;26.52;11.95;;;8.60;91.10;;;;;;5113357;28;20044;-74
2022/11/30 10:33:56;;;;;;;28.02;12.48;;;8.70;91.20;;;;;;5113260;28;20017;-74
2022/11/30 10:36:35;;;;;;;34.65;13.90;;;8.70;91.20;;;;;;5113102;28;20024;-74
2022/11/30 10:39:13;;;;;;;31.30;12.30;;;8.70;91.20;;;;;;5113181;28;20036;-75
2022/11/30 10:41:45;;;;;;;28.10;11.63;;;8.80;91.20;;;;;;5096249;28;20020;-74
2022/11/30 10:44:24;;;;;;;29.90;12.48;;;8.80;91.20;;;;;;5095963;28;20024;-74
2022/11/30 10:47:16;;;;;;;33.15;13.60;;;8.80;91.20;;;;;;5113074;28;20024;-74
2022/11/30 10:49:48;;;;;;;28.83;12.93;;;8.90;91.20;;;;;;5113135;28;20081;-74
2022/11/30 10:52:17;;;;;;;;;;;8.90;91.20;;;;;;5112867;28;20039;-74
2022/11/30 10:54:43;;;;;;;29.50;12.00;;;8.90;91.20;;;;;;5110303;28;19911;-74
2022/11/30 10:57:08;;;;;;;31.23;14.02;;;8.90;91.20;;;;;;5111366;28;20095;-74
2022/11/30 10:59:48;;;;;;;29.50;13.65;;;8.90;91.20;;;;;;5111486;28;20138;-74
2022/11/30 11:02:40;;;;;;;30.92;13.20;;;9.00;91.20;;;;;;5111583;28;20083;-74
2022/11/30 11:05:18;;;;;;;31.45;13.45;;;9.00;91.20;;;;;;5112847;28;20134;-74
2022/11/30 11:08:04;;;;;;;33.65;12.40;;;9.00;91.20;;;;;;5113008;28;20035;-74
2022/11/30 11:10:38;;;;;;;29.60;12.82;;;9.10;91.20;;;;;;5113469;28;20093;-74
2022/11/30 11:13:04;;;;;;;30.98;13.32;;;9.10;91.20;;;;;;5111483;28;20028;-74
2022/11/30 11:15:32;;;;;;;35.38;13.48;;;9.10;91.20;;;;;;5112743;28;20050;-74
2022/11/30 11:18:25;;;;;;;39.85;13.95;;;9.20;91.20;;;;;;5113467;28;20016;-74
2022/11/30 11:21:01;;;;;;;34.63;13.60;;;9.20;91.20;;;;;;5113719;28;20016;-74
2022/11/30 11:23:34;;;;;;;33.90;14.98;;;9.30;91.20;;;;;;5113868;28;20020;-74
2022/11/30 11:26:29;;;;;;;32.65;13.85;;;9.30;91.20;;;;;;5112913;28;20043;-74
2022/11/30 11:28:58;;;;;;;33.28;13.82;;;9.40;91.20;;;;;;5114008;28;20099;-74
2022/11/30 11:31:46;;;;;;;38.97;14.80;;;9.50;91.20;;;;;;5113851;28;20028;-74
2022/11/30 11:34:34;;;;;;;35.42;14.18;;;9.60;91.20;;;;;;5113900;28;20028;-74
2022/11/30 11:37:13;;;;;;;30.13;12.95;;;9.70;91.10;;;;;;5113880;28;20020;-74
2022/11/30 11:39:39;;;;;;;31.55;12.98;;;9.80;91.00;;;;;;5113788;28;20024;-74
2022/11/30 11:42:05;;;;;;;30.13;13.02;;;9.80;90.80;;;;;;5113784;28;20027;-74
2022/11/30 11:44:32;;;;;;;32.17;13.75;;;9.90;90.70;;;;;;5113745;28;20055;-74
2022/11/30 11:47:05;;;;;;;25.70;11.80;;;9.90;90.60;;;;;;5113716;28;20024;-74
2022/11/30 11:49:31;;;;;;;;;;;9.90;90.50;;;;;;5114186;28;20024;-74
2022/11/30 11:52:03;;;;;;;31.55;12.18;;;9.90;90.40;;;;;;5113565;28;19912;-74
2022/11/30 11:54:41;;;;;;;29.33;12.23;;;9.80;90.20;;;;;;5112594;28;20032;-74
2022/11/30 11:57:14;;;;;;;28.40;11.63;;;9.90;90.30;;;;;;5113740;28;20012;-74
2022/11/30 11:59:45;;;;;;;;;;;9.90;90.30;;;;;;5113033;28;20046;-74
2022/11/30 12:02:36;;;;;;;27.13;12.00;;;9.90;90.30;;;;;;5113731;28;19926;-74
2022/11/30 12:05:23;;;;;;;26.80;11.68;;;10.00;90.30;;;;;;5113512;28;20028;-74
2022/11/30 12:08:12;;;;;;;27.00;11.38;;;10.00;90.10;;;;;;5117047;28;20024;-74
2022/11/30 12:10:56;;;;;;;27.52;12.45;;;10.10;89.80;;;;;;5117770;28;20083;-74
2022/11/30 12:13:27;;;;;;;24.30;11.75;;;10.20;89.80;;;;;;5117682;28;20028;-74
2022/11/30 12:16:14;;;;;;;27.30;11.77;;;10.40;89.60;;;;;;5117716;28;20072;-74
2022/11/30 12:19:02;;;;;;;26.77;11.15;;;10.60;89.20;;;;;;5117601;28;20276;-74
2022/11/30 12:21:37;;;;;;;25.33;10.93;;;11.00;88.40;;;;;;5117543;28;20062;-74
2022/11/30 12:24:12;;;;;;;22.58;10.52;;;11.10;87.00;;;;;;5117651;28;20031;-75
2022/11/30 12:26:46;;;;;;;20.05;9.73;;;11.10;86.40;;;;;;5117275;28;20044;-74
2022/11/30 12:29:18;;;;;;;20.85;9.95;;;11.10;85.30;;;;;;5116502;28;20020;-74
2022/11/30 12:31:59;;;;;;;21.48;9.90;;;11.00;85.40;;;;;;5117265;28;20035;-75
2022/11/30 12:34:34;;;;;;;20.10;9.20;;;11.00;85.50;;;;;;5116336;28;20024;-74
2022/11/30 12:37:37;;;;;;;23.33;9.68;;;10.90;85.40;;;;;;5117402;28;20031;-74
2022/11/30 12:40:24;;;;;;;20.40;9.02;;;10.90;85.30;;;;;;5116249;28;20566;-74
2022/11/30 12:43:14;;;;;;;19.50;8.35;;;10.80;84.40;;;;;;5117198;28;20020;-74
2022/11/30 12:45:43;;;;;;;21.35;8.50;;;10.80;84.80;;;;;;5117269;28;20050;-74
2022/11/30 12:48:20;;;;;;;17.80;8.13;;;10.70;84.60;;;;;;5116997;28;20050;-74
2022/11/30 12:51:09;;;;;;;18.52;8.38;;;10.70;84.30;;;;;;5116883;28;20032;-75
2022/11/30 12:53:44;;;;;;;16.13;7.38;;;10.60;84.20;;;;;;5117004;28;20052;-74
2022/11/30 12:56:12;;;;;;;16.38;7.35;;;10.60;84.20;;;;;;5116884;28;20016;-74
2022/11/30 12:58:54;;;;;;;18.02;7.78;;;10.60;84.00;;;;;;5116845;28;20378;-74
2022/11/30 13:01:56;;;;;;;14.68;7.25;;;10.50;83.80;;;;;;5116785;28;20024;-74
2022/11/30 13:04:43;;;;;;;14.52;6.88;;;10.50;83.60;;;;;;5116875;28;20024;-74
2022/11/30 13:07:24;;;;;;;17.35;8.48;;;10.40;83.70;;;;;;5115763;28;20016;-74